Time;durP1;ratioP1;P1;durP2;ratioP2;P2;SDS_P1;SDS_P2;PMS_P1;PMS_P2;Temp;Humidity;BMP_temperature;BMP_pressure;BME280_temperature;BME280_humidity;BME280_pressure;Samples;Min_cycle;Max_cycle;Signal;HPM_P1;HPM_P2
2022/06/04 00:01:53;;;;;;;1.85;1.27;;;;;;;19.05;58.79;96612.25;10408607;28;20049;-24
2022/06/04 00:06:53;;;;;;;1.80;1.20;;;;;;;18.98;58.88;96613.09;10408123;28;20403;-23
2022/06/04 00:17:13;;;;;;;1.40;1.17;;;;;;;18.94;58.92;96620.75;10408277;28;20412;-22
2022/06/04 00:22:14;;;;;;;1.33;1.13;;;;;;;18.91;59.10;96615.69;10407898;28;20044;-32
2022/06/04 00:27:19;;;;;;;1.23;1.08;;;;;;;18.92;59.08;96618.19;10408691;28;20037;-22
2022/06/04 00:32:20;;;;;;;4.70;1.83;;;;;;;18.92;58.99;96612.28;10417362;28;20495;-23
2022/06/04 00:37:20;;;;;;;1.38;1.00;;;;;;;18.97;60.35;96615.63;10417077;28;20033;-23
2022/06/04 00:42:20;;;;;;;2.10;1.20;;;;;;;19.23;60.51;96618.94;10408066;28;20047;-22
2022/06/04 00:47:27;;;;;;;1.43;1.10;;;;;;;19.32;59.34;96617.22;10407392;28;20523;-22
2022/06/04 00:52:27;;;;;;;1.63;1.10;;;;;;;19.11;58.85;96609.69;10451985;28;20162;-23
2022/06/04 00:57:30;;;;;;;1.50;1.30;;;;;;;19.05;58.66;96629.16;10442916;28;20060;-22
2022/06/04 01:02:55;;;;;;;2.95;1.55;;;;;;;19.01;58.88;96647.78;10407162;28;20534;-23
2022/06/04 01:08:18;;;;;;;2.20;1.30;;;;;;;18.96;59.05;96654.56;10408689;28;20033;-22
2022/06/04 01:13:31;;;;;;;2.10;1.23;;;;;;;18.93;59.07;96650.31;10437229;28;20044;-23
2022/06/04 01:18:52;;;;;;;0.90;0.77;;;;;;;18.92;58.78;96647.81;10455459;28;20037;-22
2022/06/04 01:24:21;;;;;;;1.10;0.90;;;;;;;18.92;58.96;96657.97;10419727;28;20034;-23
2022/06/04 01:29:33;;;;;;;1.20;1.10;;;;;;;18.91;58.93;96661.34;10453542;28;20037;-22
2022/06/04 01:34:39;;;;;;;1.35;1.17;;;;;;;19.06;60.27;96663.81;10455085;28;20483;-24
2022/06/04 01:45:08;;;;;;;1.13;1.02;;;;;;;19.19;58.72;96642.66;10415173;28;20030;-22
2022/06/04 01:50:15;;;;;;;1.20;1.00;;;;;;;19.09;58.41;96661.28;10431554;28;20041;-21
2022/06/04 01:55:24;;;;;;;3.15;0.98;;;;;;;19.03;58.65;96659.63;10487087;28;20040;-22
2022/06/04 02:00:36;;;;;;;0.88;0.80;;;;;;;19.00;58.74;96719.69;10414599;28;20042;-22
2022/06/04 02:05:52;;;;;;;8.02;1.23;;;;;;;18.98;59.87;96777.16;10464164;28;20072;-22
2022/06/04 02:11:06;;;;;;;6.53;2.95;;;;;;;19.02;65.21;96750.97;10458102;28;20034;-23
2022/06/04 02:16:13;;;;;;;7.30;2.65;;;;;;;19.00;61.38;96752.66;10438414;28;20094;-24
2022/06/04 02:21:16;;;;;;;6.72;3.10;;;;;;;19.16;66.02;96723.88;10456973;28;20037;-21
2022/06/04 02:26:18;;;;;;;7.40;2.45;;;;;;;19.27;63.41;96611.31;10456278;28;20494;-21
2022/06/04 02:31:51;;;;;;;1.08;0.98;;;;;;;19.21;60.19;96621.50;10453056;28;20068;-22
2022/06/04 02:37:13;;;;;;;4.05;1.13;;;;;;;19.05;58.82;96527.66;10436465;28;20040;-21
2022/06/04 02:42:21;;;;;;;3.08;0.98;;;;;;;18.98;58.88;96528.53;10413044;28;20455;-21
2022/06/04 02:47:32;;;;;;;1.58;0.98;;;;;;;18.96;58.89;96522.63;10413976;28;20037;-22
2022/06/04 02:52:34;;;;;;;2.63;1.23;;;;;;;18.94;58.82;96504.91;10456966;28;20043;-22
2022/06/04 02:57:39;;;;;;;2.47;1.25;;;;;;;18.93;58.88;96513.34;10446859;28;20040;-23
2022/06/04 03:02:40;;;;;;;2.10;1.25;;;;;;;18.93;58.85;96520.13;10412404;28;20030;-22
2022/06/04 03:07:43;;;;;;;1.50;1.37;;;;;;;18.92;58.95;96531.13;10413228;28;20047;-22
2022/06/04 03:12:44;;;;;;;2.33;1.40;;;;;;;18.92;58.77;96536.19;10411732;28;20303;-22
2022/06/04 03:17:47;;;;;;;2.35;1.85;;;;;;;19.17;59.73;96546.19;10409760;28;20484;-22
2022/06/04 03:22:48;;;;;;;4.60;1.60;;;;;;;19.32;59.99;96573.22;10447198;28;20088;-21
2022/06/04 03:27:48;;;;;;;2.42;1.20;;;;;;;19.16;58.79;96566.53;10424543;28;20033;-23
2022/06/04 03:32:49;;;;;;;1.70;1.20;;;;;;;19.05;58.29;96573.31;10421920;28;20430;-22
2022/06/04 03:37:50;;;;;;;1.60;1.10;;;;;;;19.03;58.55;96608.00;10412792;28;20044;-21
2022/06/04 03:42:51;;;;;;;3.03;1.20;;;;;;;18.98;58.45;96617.31;10433950;28;20031;-21
2022/06/04 03:47:51;;;;;;;1.77;1.38;;;;;;;18.99;58.49;96728.13;10448459;28;20514;-22
2022/06/04 03:52:52;;;;;;;6.28;1.98;;;;;;;19.00;58.55;96811.00;10458389;28;20033;-21
2022/06/04 03:57:52;;;;;;;3.13;1.30;;;;;;;18.98;58.74;96850.75;10438258;28;20492;-22
2022/06/04 04:02:55;;;;;;;1.85;1.10;;;;;;;18.96;58.68;96877.81;10408581;28;20315;-21
2022/06/04 04:07:57;;;;;;;3.03;1.80;;;;;;;18.94;58.81;96907.41;10408373;28;20061;-23
2022/06/04 04:12:58;;;;;;;2.22;1.30;;;;;;;19.07;60.84;96906.56;10408845;28;20445;-22
2022/06/04 04:17:58;;;;;;;1.60;1.17;;;;;;;19.29;60.20;96908.31;10408471;28;20124;-23
2022/06/04 04:23:00;;;;;;;0.73;0.70;;;;;;;19.31;58.33;96896.47;10407820;28;20112;-21
2022/06/04 04:28:00;;;;;;;0.98;0.95;;;;;;;19.10;58.34;96897.25;10408047;28;20068;-22
2022/06/04 04:33:03;;;;;;;1.45;0.98;;;;;;;19.08;58.38;96918.44;10422289;28;20029;-23
2022/06/04 04:38:04;;;;;;;1.38;0.90;;;;;;;19.01;58.54;96929.41;10410952;28;20404;-21
2022/06/04 04:43:04;;;;;;;1.17;1.08;;;;;;;18.98;58.57;96921.78;10406857;28;20041;-22
2022/06/04 04:48:05;;;;;;;1.70;1.05;;;;;;;18.95;58.49;96886.28;10407592;28;20084;-22
2022/06/04 04:53:10;;;;;;;1.77;1.13;;;;;;;18.92;58.55;96767.03;10465151;28;20036;-21
2022/06/04 04:58:11;;;;;;;0.80;0.80;;;;;;;18.91;58.54;96689.25;10439138;28;20041;-22
2022/06/04 05:03:11;;;;;;;1.00;0.90;;;;;;;18.89;58.59;96645.25;10415116;28;20388;-23
2022/06/04 05:08:11;;;;;;;0.85;0.85;;;;;;;18.91;58.42;96605.53;10414426;28;20484;-21
2022/06/04 05:13:12;;;;;;;1.83;1.30;;;;;;;19.18;60.11;96636.69;10414180;28;20072;-23
2022/06/04 05:18:13;;;;;;;1.75;1.10;;;;;;;19.31;58.51;96607.06;10414275;28;20484;-22
2022/06/04 05:23:13;;;;;;;1.23;1.10;;;;;;;19.18;58.34;96634.16;10414575;28;20068;-21
2022/06/04 05:28:14;;;;;;;1.60;0.93;;;;;;;19.07;58.08;96635.06;10414107;28;20083;-22
2022/06/04 05:33:14;;;;;;;0.90;0.75;;;;;;;19.01;58.39;96632.56;10429642;28;20129;-21
2022/06/04 05:38:15;;;;;;;1.40;1.30;;;;;;;18.98;58.65;96643.56;10419818;28;20043;-22
2022/06/04 05:43:15;;;;;;;1.83;1.13;;;;;;;18.96;58.31;96662.16;10413280;28;20033;-22
2022/06/04 05:48:15;;;;;;;0.80;0.80;;;;;;;18.95;58.30;96657.94;10413815;28;20033;-21
2022/06/04 05:53:16;;;;;;;1.10;1.00;;;;;;;18.93;58.44;96674.88;10469256;28;20065;-22
2022/06/04 05:58:16;;;;;;;1.70;1.00;;;;;;;18.93;58.41;96701.06;10435846;28;20467;-22
2022/06/04 06:03:17;;;;;;;1.45;1.05;;;;;;;18.94;58.31;96762.81;10412739;28;20033;-22
2022/06/04 06:08:17;;;;;;;1.20;1.10;;;;;;;19.15;59.75;96819.44;10443246;28;20033;-24
2022/06/04 06:13:17;;;;;;;2.40;1.17;;;;;;;19.33;60.10;96748.38;10423990;28;20034;-22
2022/06/04 06:18:18;;;;;;;1.40;1.23;;;;;;;19.29;58.36;96781.38;10417601;28;20037;-22
2022/06/04 06:23:18;;;;;;;1.05;0.90;;;;;;;19.16;58.23;96767.84;10452955;28;20021;-22
2022/06/04 06:28:19;;;;;;;1.50;1.07;;;;;;;18.97;58.17;96747.56;10423690;28;20037;-22
2022/06/04 06:33:19;;;;;;;2.20;0.80;;;;;;;19.00;58.31;96766.16;10423409;28;20327;-21
2022/06/04 06:38:19;;;;;;;1.20;1.00;;;;;;;18.97;58.17;96753.50;10411612;28;20103;-22
2022/06/04 06:43:21;;;;;;;1.03;0.90;;;;;;;18.96;58.14;96764.50;10439646;28;20033;-22
2022/06/04 06:48:22;;;;;;;1.80;1.23;;;;;;;18.95;58.21;96754.34;10443971;28;20041;-21
2022/06/04 06:53:22;;;;;;;1.35;1.00;;;;;;;18.94;58.27;96742.50;10469218;28;20047;-22
2022/06/04 06:58:22;;;;;;;1.83;1.07;;;;;;;18.93;58.37;96754.34;10460803;28;20121;-22
2022/06/04 07:03:23;;;;;;;1.20;1.00;;;;;;;18.94;58.42;96747.59;10450359;28;20094;-23
2022/06/04 07:08:23;;;;;;;1.37;1.07;;;;;;;19.23;59.26;96731.47;10411305;28;20042;-22
2022/06/04 07:13:24;;;;;;;1.08;0.98;;;;;;;19.31;58.13;96727.22;10438334;28;20029;-21
2022/06/04 07:18:25;;;;;;;1.77;1.13;;;;;;;19.18;58.13;96727.25;10449075;28;20067;-22
2022/06/04 07:23:25;;;;;;;1.00;0.90;;;;;;;19.06;58.01;96712.03;10409402;28;20034;-21
2022/06/04 07:28:25;;;;;;;1.17;0.85;;;;;;;19.02;58.12;96725.59;10409750;28;20087;-21
2022/06/04 07:33:27;;;;;;;0.77;0.77;;;;;;;18.99;58.65;96735.75;10425669;28;20061;-22
2022/06/04 07:38:28;;;;;;;1.27;0.80;;;;;;;18.97;58.29;96729.81;10450862;28;20275;-22
2022/06/04 07:43:28;;;;;;;1.40;1.00;;;;;;;18.94;58.26;96712.94;10419254;28;20565;-22
2022/06/04 07:48:28;;;;;;;1.43;1.33;;;;;;;18.95;58.20;96716.28;10408828;28;20120;-21
2022/06/04 07:53:29;;;;;;;0.80;0.73;;;;;;;18.94;58.33;96719.69;10468489;28;20250;-23
2022/06/04 07:58:29;;;;;;;1.40;0.93;;;;;;;18.93;58.22;96706.13;10427866;28;20295;-23
2022/06/04 08:03:33;;;;;;;1.37;1.17;;;;;;;19.18;59.22;96705.22;10408869;28;20041;-22
2022/06/04 08:08:34;;;;;;;1.83;1.10;;;;;;;19.35;59.48;96710.28;10408484;28;20045;-22
2022/06/04 08:13:34;;;;;;;0.82;0.82;;;;;;;19.27;58.41;96712.84;10407801;28;20038;-22
2022/06/04 08:18:34;;;;;;;0.67;0.57;;;;;;;19.13;57.83;96713.72;10408515;28;20037;-22
2022/06/04 08:23:38;;;;;;;1.57;0.83;;;;;;;19.04;57.83;96712.06;10407832;28;20098;-22
2022/06/04 08:28:38;;;;;;;1.05;0.80;;;;;;;19.01;57.84;96713.75;10415667;28;20410;-22
2022/06/04 08:33:39;;;;;;;1.77;0.93;;;;;;;18.99;58.12;96721.34;10435436;28;20049;-22
2022/06/04 08:38:40;;;;;;;1.38;0.90;;;;;;;18.98;58.25;96731.50;10456148;28;20119;-23
2022/06/04 08:43:51;;;;;;;1.42;0.85;;;;;;;18.97;58.27;96729.81;10424155;28;20112;-23
2022/06/04 08:48:53;;;;;;;1.65;1.00;;;;;;;18.95;58.23;96729.84;10415686;28;20037;-22
2022/06/04 08:53:55;;;;;;;2.25;1.35;;;;;;;18.95;58.27;96723.91;10482016;28;20551;-23
2022/06/04 08:59:21;;;;;;;0.70;0.70;;;;;;;19.03;59.86;96722.19;10426922;28;20037;-22
2022/06/04 09:04:35;;;;;;;0.90;0.77;;;;;;;19.29;58.83;96735.69;10414911;28;20052;-22
2022/06/04 09:09:43;;;;;;;1.40;0.77;;;;;;;19.35;57.77;96753.44;10415165;28;20064;-22
2022/06/04 09:14:49;;;;;;;1.33;1.02;;;;;;;19.17;57.77;96745.84;10415056;28;20045;-22
2022/06/04 09:19:56;;;;;;;2.27;1.27;;;;;;;19.10;57.63;96746.72;10424904;28;20065;-22
2022/06/04 09:24:56;;;;;;;1.13;0.90;;;;;;;19.04;57.90;96739.09;10453449;28;20029;-22
2022/06/04 09:30:09;;;;;;;1.43;0.70;;;;;;;19.01;57.99;96756.88;10414306;28;20140;-23
2022/06/04 09:35:25;;;;;;;0.75;0.75;;;;;;;18.99;58.05;96773.81;10439512;28;20053;-23
2022/06/04 09:40:29;;;;;;;1.00;0.90;;;;;;;18.99;58.05;96764.50;10417829;28;20036;-22
2022/06/04 09:45:30;;;;;;;1.08;0.88;;;;;;;18.99;58.04;96761.13;10454580;28;20037;-21
2022/06/04 09:50:34;;;;;;;0.93;0.90;;;;;;;18.98;58.12;96769.56;10444508;28;20033;-22
2022/06/04 09:55:35;;;;;;;0.88;0.88;;;;;;;18.90;58.02;96763.63;10486730;28;20033;-22
2022/06/04 10:00:39;;;;;;;0.75;0.75;;;;;;;19.23;59.40;96776.31;10454836;28;20063;-22
2022/06/04 10:06:00;;;;;;;0.80;0.75;;;;;;;19.38;58.55;96782.22;10434791;28;20427;-22
2022/06/04 10:11:04;;;;;;;1.38;1.25;;;;;;;19.25;57.87;96785.63;10422657;28;20043;-23
2022/06/04 10:16:19;;;;;;;0.85;0.77;;;;;;;19.15;57.72;96803.38;10452800;28;20030;-23
2022/06/04 10:21:23;;;;;;;0.85;0.85;;;;;;;19.07;57.90;96794.91;10434788;28;20037;-21
2022/06/04 10:26:47;;;;;;;1.55;1.15;;;;;;;19.04;57.91;96789.84;10411424;28;20063;-22
2022/06/04 10:32:26;;;;;;;0.82;0.63;;;;;;;18.84;58.02;96768.75;10415565;28;20037;-22
2022/06/04 10:37:32;;;;;;;1.60;0.90;;;;;;;19.00;58.05;96793.25;10423931;28;20045;-22
2022/06/04 10:42:51;;;;;;;0.80;0.80;;;;;;;19.00;57.78;96795.78;10411481;28;20112;-22
2022/06/04 10:48:09;;;;;;;1.13;0.77;;;;;;;18.99;58.17;96796.66;10411419;28;20041;-22
2022/06/04 10:53:25;;;;;;;0.70;0.63;;;;;;;18.99;58.05;96806.78;10464867;28;20552;-22
2022/06/04 10:58:36;;;;;;;0.50;0.50;;;;;;;19.24;59.12;96806.78;10431467;28;20036;-23
2022/06/04 11:04:03;;;;;;;0.98;0.85;;;;;;;19.40;58.96;96810.97;10411002;28;20114;-21
2022/06/04 11:09:12;;;;;;;0.75;0.75;;;;;;;19.28;57.79;96805.09;10451591;28;20033;-23
2022/06/04 11:14:22;;;;;;;1.10;1.00;;;;;;;19.18;57.76;96808.47;10414303;28;20136;-22
2022/06/04 11:19:33;;;;;;;0.93;0.55;;;;;;;19.10;57.85;96798.28;10410533;28;20034;-21
2022/06/04 11:24:49;;;;;;;0.80;0.80;;;;;;;19.06;57.93;96798.31;10409410;28;20071;-22
2022/06/04 11:29:51;;;;;;;1.20;1.10;;;;;;;19.03;57.98;96803.38;10409666;28;20033;-22
2022/06/04 11:35:10;;;;;;;0.90;0.70;;;;;;;19.01;58.20;96792.41;10437441;28;20037;-24
2022/06/04 11:40:52;;;;;;;0.90;0.90;;;;;;;19.01;58.11;96795.78;10446206;28;20059;-22
2022/06/04 11:46:07;;;;;;;0.88;0.88;;;;;;;19.01;58.02;96794.94;10408238;28;20411;-24
2022/06/04 11:51:19;;;;;;;1.10;0.80;;;;;;;19.00;58.08;96795.78;10450014;28;20479;-22
2022/06/04 11:56:45;;;;;;;0.82;0.70;;;;;;;19.22;59.16;96787.31;10463447;28;20080;-22
2022/06/04 12:01:54;;;;;;;0.70;0.70;;;;;;;19.41;58.58;96786.44;10408603;28;20041;-22
2022/06/04 12:07:06;;;;;;;0.55;0.55;;;;;;;19.30;58.21;96775.44;10408212;28;20038;-23
2022/06/04 12:12:24;;;;;;;0.80;0.70;;;;;;;19.20;57.69;96771.25;10427210;28;20495;-22
2022/06/04 12:17:30;;;;;;;0.77;0.77;;;;;;;19.11;57.77;96763.63;10449654;28;20479;-21
2022/06/04 12:28:29;;;;;;;0.60;0.60;;;;;;;18.97;57.73;96745.03;10408692;28;20029;-22
2022/06/04 12:33:33;;;;;;;0.65;0.65;;;;;;;19.03;58.05;96752.63;10426251;28;20041;-23
2022/06/04 12:38:39;;;;;;;0.70;0.70;;;;;;;19.02;58.06;96750.97;10413474;28;20037;-23
2022/06/04 12:43:44;;;;;;;0.83;0.80;;;;;;;18.99;57.94;96739.13;10408629;28;20098;-22
2022/06/04 12:49:03;;;;;;;0.73;0.73;;;;;;;18.99;58.02;96731.50;10407792;28;20041;-23
2022/06/04 12:54:23;;;;;;;0.70;0.70;;;;;;;19.19;59.38;96728.97;10476297;28;20041;-22
2022/06/04 12:59:42;;;;;;;0.85;0.80;;;;;;;19.39;58.95;96717.03;10412167;28;20029;-23
2022/06/04 13:04:45;;;;;;;0.50;0.50;;;;;;;19.31;58.20;96724.69;10406738;28;20033;-24
2022/06/04 13:10:15;;;;;;;0.82;0.70;;;;;;;19.19;57.59;96728.97;10406669;28;20480;-22
2022/06/04 13:15:29;;;;;;;0.60;0.60;;;;;;;19.12;57.58;96737.41;10413037;28;20040;-22
2022/06/04 13:20:48;;;;;;;0.82;0.80;;;;;;;19.08;57.88;96735.72;10414649;28;20044;-24
2022/06/04 13:25:59;;;;;;;1.27;1.00;;;;;;;19.06;57.84;96739.94;10413577;28;20407;-23
2022/06/04 13:31:01;;;;;;;0.70;0.70;;;;;;;19.04;57.96;96739.97;10414139;28;20124;-22
2022/06/04 13:36:02;;;;;;;0.80;0.80;;;;;;;19.03;57.86;96738.28;10437282;28;20030;-23
2022/06/04 13:41:06;;;;;;;0.70;0.70;;;;;;;19.02;58.01;96739.09;10414152;28;20030;-22
2022/06/04 13:46:14;;;;;;;0.60;0.60;;;;;;;19.03;57.91;96737.41;10413384;28;20028;-22
2022/06/04 13:51:20;;;;;;;0.85;0.77;;;;;;;19.18;59.33;96734.84;10448937;28;20036;-22
2022/06/04 13:56:34;;;;;;;0.70;0.70;;;;;;;19.39;58.69;96737.34;10480874;28;20049;-24
2022/06/04 14:01:39;;;;;;;0.80;0.80;;;;;;;19.41;57.99;96730.59;10454491;28;20037;-23
2022/06/04 14:06:41;;;;;;;0.85;0.50;;;;;;;19.25;57.62;96728.94;10431153;28;20512;-23
2022/06/04 14:11:53;;;;;;;0.52;0.52;;;;;;;19.15;57.65;96725.53;10427804;28;20419;-22
2022/06/04 14:17:09;;;;;;;1.15;0.60;;;;;;;19.11;57.79;96728.09;10453713;28;20048;-22
2022/06/04 14:22:12;;;;;;;0.70;0.70;;;;;;;19.10;57.86;96729.78;10413726;28;20033;-22
2022/06/04 14:27:37;;;;;;;0.50;0.50;;;;;;;19.06;57.91;96717.09;10412167;28;20792;-22
2022/06/04 14:32:52;;;;;;;0.95;0.82;;;;;;;19.06;57.88;96717.97;10422811;28;20041;-22
2022/06/04 14:38:02;;;;;;;0.73;0.73;;;;;;;19.05;57.80;96716.28;10411899;28;20029;-22
2022/06/04 14:43:21;;;;;;;0.70;0.70;;;;;;;19.04;57.99;96708.66;10410795;28;20044;-22
2022/06/04 14:48:48;;;;;;;0.73;0.73;;;;;;;19.10;59.09;96709.47;10411278;28;20480;-23
2022/06/04 14:53:49;;;;;;;;;;;;;;;19.36;58.98;96702.69;10475922;28;20046;-22
2022/06/04 14:59:13;;;;;;;0.85;0.70;;;;;;;19.42;57.74;96706.88;10425215;28;19917;-22
2022/06/04 15:04:26;;;;;;;0.70;0.70;;;;;;;19.28;57.68;96688.31;10409811;28;20029;-22
2022/06/04 15:09:48;;;;;;;0.50;0.50;;;;;;;19.17;57.77;96684.94;10410233;28;20068;-22
2022/06/04 15:15:07;;;;;;;0.50;0.50;;;;;;;19.13;57.66;96688.31;10450792;28;20490;-23
2022/06/04 15:20:32;;;;;;;0.80;0.80;;;;;;;19.06;57.86;96679.03;10440646;28;20076;-21
2022/06/04 15:25:46;;;;;;;0.80;0.60;;;;;;;19.04;57.89;96678.22;10409577;28;20032;-21
2022/06/04 15:36:23;;;;;;;0.60;0.60;;;;;;;19.07;58.09;96676.50;10408060;28;20045;-21
2022/06/04 15:41:46;;;;;;;0.80;0.80;;;;;;;19.06;57.97;96663.81;10422537;28;20037;-22
2022/06/04 15:46:49;;;;;;;0.80;0.80;;;;;;;19.12;59.64;96656.19;10450387;28;20029;-23
2022/06/04 15:57:31;;;;;;;0.32;0.32;;;;;;;19.48;57.29;96650.97;10446610;28;20052;-22
2022/06/04 16:02:33;;;;;;;0.75;0.70;;;;;;;19.29;57.68;96647.72;10409787;28;20050;-22
2022/06/04 16:08:01;;;;;;;0.60;0.50;;;;;;;19.23;57.60;96651.94;10449539;28;20399;-22
2022/06/04 16:13:32;;;;;;;0.60;0.60;;;;;;;19.15;57.66;96648.56;10421375;28;20492;-22
2022/06/04 16:18:51;;;;;;;0.50;0.50;;;;;;;19.12;57.75;96648.56;10408223;28;20033;-22
2022/06/04 16:24:17;;;;;;;0.77;0.73;;;;;;;19.12;58.02;96640.97;10408678;28;20529;-22
2022/06/04 16:29:22;;;;;;;0.50;0.50;;;;;;;19.10;57.88;96635.06;10402151;28;20050;-23
2022/06/04 16:34:48;;;;;;;0.90;0.82;;;;;;;19.09;57.96;96634.19;10431183;28;20045;-23
2022/06/04 16:39:49;;;;;;;0.85;0.75;;;;;;;19.07;57.92;96625.75;10407365;28;20098;-24
2022/06/04 16:45:07;;;;;;;0.80;0.70;;;;;;;19.08;57.87;96639.31;10448820;28;20086;-22
2022/06/04 16:50:10;;;;;;;0.60;0.60;;;;;;;19.37;59.15;96619.72;10451266;28;20033;-22
2022/06/04 16:55:18;;;;;;;0.40;0.40;;;;;;;19.49;57.63;96627.31;10492502;28;20036;-22
2022/06/04 17:00:22;;;;;;;0.60;0.60;;;;;;;19.34;57.84;96622.28;10456935;28;20033;-22
2022/06/04 17:05:57;;;;;;;0.38;0.38;;;;;;;19.26;57.65;96629.09;10436901;28;20033;-22
2022/06/04 17:11:06;;;;;;;0.75;0.57;;;;;;;19.18;57.64;96623.19;10415300;28;20045;-23
2022/06/04 17:16:16;;;;;;;0.90;0.55;;;;;;;19.15;57.82;96635.88;10414928;28;20033;-22
2022/06/04 17:21:29;;;;;;;1.77;0.52;;;;;;;19.13;58.06;96637.56;10414858;28;20044;-22
2022/06/04 17:26:46;;;;;;;0.68;0.68;;;;;;;19.13;57.90;96647.72;10428293;28;20033;-24
2022/06/04 17:31:53;;;;;;;0.65;0.65;;;;;;;19.10;57.99;96640.97;10455361;28;20052;-21
2022/06/04 17:37:02;;;;;;;0.80;0.80;;;;;;;19.10;58.11;96640.13;10431044;28;20021;-23
2022/06/04 17:42:05;;;;;;;0.60;0.60;;;;;;;19.10;57.91;96635.06;10413713;28;20041;-22
2022/06/04 17:47:06;;;;;;;0.65;0.50;;;;;;;19.35;59.27;96618.91;10413680;28;20480;-22
2022/06/04 17:52:07;;;;;;;0.43;0.43;;;;;;;19.46;58.70;96617.16;10450125;28;20051;-24
2022/06/04 17:57:07;;;;;;;0.40;0.40;;;;;;;19.44;58.21;96609.53;10455403;28;20064;-22
2022/06/04 18:02:07;;;;;;;0.93;0.40;;;;;;;19.31;57.49;96617.22;10413285;28;20119;-23
2022/06/04 18:07:08;;;;;;;0.53;0.53;;;;;;;19.23;57.71;96618.94;10412512;28;20367;-23
2022/06/04 18:12:08;;;;;;;0.67;0.60;;;;;;;19.19;57.64;96617.28;10412455;28;20299;-23
2022/06/04 18:17:09;;;;;;;0.75;0.70;;;;;;;19.16;57.83;96607.13;10412550;28;20670;-23
2022/06/04 18:22:09;;;;;;;0.28;0.28;;;;;;;19.13;57.82;96627.41;10436486;28;20055;-24
2022/06/04 18:27:09;;;;;;;0.50;0.50;;;;;;;19.14;57.89;96635.03;10433196;28;20069;-23
2022/06/04 18:32:10;;;;;;;0.40;0.40;;;;;;;19.13;58.06;96632.50;10419477;28;20032;-22
2022/06/04 18:37:11;;;;;;;1.17;0.57;;;;;;;19.12;57.79;96651.13;10423069;28;20471;-22
2022/06/04 18:58:08;;;;;;;0.63;0.52;;;;;;;19.36;57.74;96630.75;10410897;28;20127;-21
2022/06/04 19:03:08;;;;;;;0.43;0.43;;;;;;;19.19;57.62;96617.28;10410296;28;20100;-22
2022/06/04 19:08:18;;;;;;;0.95;0.40;;;;;;;19.20;57.77;96635.06;10410675;28;20095;-22
2022/06/04 19:18:39;;;;;;;0.40;0.40;;;;;;;19.16;57.66;96627.44;10452001;28;20029;-22
2022/06/04 19:28:59;;;;;;;0.45;0.45;;;;;;;19.14;57.80;96621.50;10409719;28;20041;-22
2022/06/04 19:33:59;;;;;;;0.57;0.57;;;;;;;19.10;57.85;96604.59;10419032;28;20407;-22
2022/06/04 19:39:00;;;;;;;0.80;0.80;;;;;;;19.14;57.81;96618.97;10409710;28;20083;-24
2022/06/04 19:44:02;;;;;;;0.70;0.60;;;;;;;19.34;59.08;96617.22;10409517;28;20124;-23
2022/06/04 19:49:02;;;;;;;0.50;0.40;;;;;;;19.56;58.37;96628.94;10409283;28;20029;-22
2022/06/04 19:59:22;;;;;;;0.50;0.50;;;;;;;19.36;57.63;96625.66;10414107;28;20079;-22
2022/06/04 20:04:22;;;;;;;0.40;0.40;;;;;;;19.27;57.44;96635.88;10408126;28;20087;-22
2022/06/04 20:09:22;;;;;;;0.60;0.60;;;;;;;19.25;57.69;96635.03;10446914;28;20604;-21
2022/06/04 20:14:23;;;;;;;0.40;0.40;;;;;;;19.15;57.60;96625.72;10410995;28;20041;-23
2022/06/04 20:19:24;;;;;;;0.55;0.45;;;;;;;19.19;57.51;96647.75;10408129;28;20045;-21
2022/06/04 20:24:24;;;;;;;0.40;0.40;;;;;;;19.16;57.68;96628.25;10415559;28;20037;-21
2022/06/04 20:29:24;;;;;;;0.50;0.50;;;;;;;19.16;57.82;96635.03;10416752;28;20507;-21
2022/06/04 20:34:25;;;;;;;0.50;0.50;;;;;;;19.13;57.84;96617.28;10437320;28;20041;-22
2022/06/04 20:39:25;;;;;;;0.70;0.60;;;;;;;19.13;57.80;96619.81;10415645;28;20454;-22
2022/06/04 20:44:27;;;;;;;0.40;0.40;;;;;;;19.40;58.87;96609.56;10415674;28;20040;-22
2022/06/04 20:49:27;;;;;;;0.50;0.50;;;;;;;19.57;58.50;96595.06;10416082;28;20033;-21
2022/06/04 20:54:28;;;;;;;0.43;0.43;;;;;;;19.47;58.09;96594.28;10491595;28;20448;-22
2022/06/04 20:59:29;;;;;;;0.40;0.40;;;;;;;19.34;57.38;96582.50;10419643;28;20407;-22
2022/06/04 21:04:30;;;;;;;0.57;0.40;;;;;;;19.29;57.45;96594.41;10415529;28;20036;-23
2022/06/04 21:09:31;;;;;;;0.67;0.67;;;;;;;19.25;57.58;96574.13;10415612;28;20045;-22
2022/06/04 21:14:32;;;;;;;0.52;0.52;;;;;;;19.24;57.20;96580.88;10414130;28;20295;-22
2022/06/04 21:19:32;;;;;;;0.40;0.40;;;;;;;19.22;57.52;96589.34;10414589;28;20041;-23
2022/06/04 21:24:33;;;;;;;0.60;0.55;;;;;;;19.20;57.63;96593.59;10414312;28;20037;-23
2022/06/04 21:29:33;;;;;;;0.50;0.40;;;;;;;19.18;57.50;96580.03;10414874;28;20413;-22
2022/06/04 21:39:53;;;;;;;0.30;0.30;;;;;;;19.20;57.54;96585.97;10413549;28;20283;-22
2022/06/04 21:44:53;;;;;;;0.32;0.32;;;;;;;19.48;58.73;96580.75;10414139;28;20076;-21
2022/06/04 21:49:54;;;;;;;0.30;0.30;;;;;;;19.60;57.92;96570.50;10413242;28;20068;-22
2022/06/04 21:54:55;;;;;;;0.82;0.50;;;;;;;19.38;57.83;96532.56;10492803;28;20036;-22
2022/06/04 21:59:56;;;;;;;0.50;0.40;;;;;;;19.36;57.48;96547.81;10413252;28;20080;-22
2022/06/04 22:04:56;;;;;;;0.40;0.40;;;;;;;19.31;57.41;96533.44;10412455;28;20029;-22
2022/06/04 22:09:56;;;;;;;0.93;0.47;;;;;;;19.27;57.40;96541.94;10412851;28;20041;-22
2022/06/04 22:14:57;;;;;;;0.33;0.33;;;;;;;19.25;57.42;96546.19;10412866;28;20037;-21
2022/06/04 22:19:57;;;;;;;0.40;0.40;;;;;;;19.23;57.43;96543.66;10413034;28;20111;-21
2022/06/04 22:24:58;;;;;;;0.30;0.30;;;;;;;19.21;57.61;96560.59;10412465;28;20468;-22
2022/06/04 22:29:58;;;;;;;0.60;0.50;;;;;;;19.22;57.53;96558.88;10453591;28;20040;-22
2022/06/04 22:34:59;;;;;;;0.40;0.30;;;;;;;19.22;57.46;96551.28;10447474;28;20029;-23
2022/06/04 22:40:00;;;;;;;0.57;0.47;;;;;;;19.24;58.72;96530.13;10413183;28;20292;-22
2022/06/04 22:45:00;;;;;;;0.40;0.40;;;;;;;19.51;58.78;96517.22;10452159;28;20037;-22
2022/06/04 22:50:00;;;;;;;0.50;0.40;;;;;;;19.59;57.24;96512.94;10438159;28;20037;-22
2022/06/04 22:55:01;;;;;;;0.40;0.40;;;;;;;19.43;57.51;96518.16;10487546;28;20031;-23
2022/06/04 23:00:02;;;;;;;0.40;0.40;;;;;;;19.33;57.33;96517.38;10410547;28;20283;-22
2022/06/04 23:05:03;;;;;;;0.45;0.45;;;;;;;19.32;57.56;96522.44;10416205;28;20024;-23
2022/06/04 23:20:43;;;;;;;0.57;0.50;;;;;;;19.24;57.48;96512.34;10427693;28;20040;-22
2022/06/04 23:26:00;;;;;;;0.60;0.55;;;;;;;19.23;57.51;96513.19;10442549;28;20029;-22
2022/06/04 23:31:03;;;;;;;0.57;0.50;;;;;;;19.24;57.47;96506.44;10410282;28;20042;-22
2022/06/04 23:36:04;;;;;;;0.38;0.30;;;;;;;19.23;57.57;96497.13;10447254;28;20495;-22
2022/06/04 23:41:05;;;;;;;0.30;0.30;;;;;;;19.43;59.11;96510.53;10440279;28;20030;-22
2022/06/04 23:46:05;;;;;;;0.40;0.40;;;;;;;19.61;58.07;96502.78;10409388;28;20029;-22
2022/06/04 23:51:10;;;;;;;0.60;0.60;;;;;;;19.49;58.00;96491.00;10429349;28;20479;-21
2022/06/04 23:56:11;;;;;;;0.32;0.32;;;;;;;19.39;57.37;96478.41;10477918;28;20037;-23
